Time;durP1;ratioP1;P1;durP2;ratioP2;P2;SDS_P1;SDS_P2;PMS_P1;PMS_P2;Temp;Humidity;BMP_temperature;BMP_pressure;BME280_temperature;BME280_humidity;BME280_pressure;Samples;Min_cycle;Max_cycle;Signal;HPM_P1;HPM_P2
2021/10/12 00:00:46;;;;;;;76.35;41.35;;;;;;;;;;4935105;29;20499;-67
2021/10/12 00:03:13;;;;;;;46.83;27.65;;;;;;;;;;4935054;29;20055;-67
2021/10/12 00:05:39;;;;;;;44.63;27.02;;;;;;;;;;4935012;29;20060;-67
2021/10/12 00:08:06;;;;;;;44.47;27.60;;;;;;;;;;4935268;29;20515;-67
2021/10/12 00:10:32;;;;;;;75.13;37.90;;;;;;;;;;4935123;29;20060;-66
2021/10/12 00:12:59;;;;;;;54.97;32.88;;;;;;;;;;4934842;29;20271;-68
2021/10/12 00:15:26;;;;;;;64.18;36.53;;;;;;;;;;4934933;29;20102;-67
2021/10/12 00:17:52;;;;;;;47.25;28.90;;;;;;;;;;4935202;29;20086;-68
2021/10/12 00:20:19;;;;;;;46.78;28.08;;;;;;;;;;4935284;29;20102;-68
2021/10/12 00:22:45;;;;;;;47.00;27.75;;;;;;;;;;4934545;29;20123;-67
2021/10/12 00:25:12;;;;;;;41.88;25.83;;;;;;;;;;4934823;29;20459;-66
2021/10/12 00:27:39;;;;;;;41.97;25.90;;;;;;;;;;4934755;29;20056;-68
2021/10/12 00:30:06;;;;;;;44.63;25.30;;;;;;;;;;4935015;29;20074;-66
2021/10/12 00:32:33;;;;;;;46.63;26.05;;;;;;;;;;4934478;29;20055;-68
2021/10/12 00:35:00;;;;;;;49.20;27.10;;;;;;;;;;4934701;29;20194;-68
2021/10/12 00:37:27;;;;;;;47.50;27.70;;;;;;;;;;4934732;29;20110;-68
2021/10/12 00:39:53;;;;;;;45.13;28.10;;;;;;;;;;4934908;29;20055;-68
2021/10/12 00:42:20;;;;;;;45.22;27.00;;;;;;;;;;4934530;29;20114;-68
2021/10/12 00:44:47;;;;;;;44.67;27.13;;;;;;;;;;4934537;29;20056;-67
2021/10/12 00:47:13;;;;;;;47.80;28.38;;;;;;;;;;4917917;29;20107;-68
2021/10/12 00:49:40;;;;;;;45.00;27.23;;;;;;;;;;4934574;29;20067;-68
2021/10/12 00:52:06;;;;;;;40.35;25.42;;;;;;;;;;4934493;29;20083;-67
2021/10/12 00:54:33;;;;;;;48.78;28.33;;;;;;;;;;4934390;29;20048;-67
2021/10/12 00:57:00;;;;;;;41.40;26.02;;;;;;;;;;4934646;29;20110;-67
2021/10/12 00:59:27;;;;;;;42.65;25.13;;;;;;;;;;4917680;29;20487;-67
2021/10/12 01:01:54;;;;;;;40.58;24.48;;;;;;;;;;4934313;29;20515;-67
2021/10/12 01:04:21;;;;;;;44.25;25.38;;;;;;;;;;4917624;29;20499;-66
2021/10/12 01:06:48;;;;;;;46.80;27.45;;;;;;;;;;4934432;29;20060;-67
2021/10/12 01:09:14;;;;;;;40.17;24.73;;;;;;;;;;4934588;29;20549;-67
2021/10/12 01:11:41;;;;;;;44.20;25.17;;;;;;;;;;4934170;29;20048;-66
2021/10/12 01:14:07;;;;;;;42.22;25.50;;;;;;;;;;4902095;29;20043;-67
2021/10/12 01:16:34;;;;;;;41.47;26.38;;;;;;;;;;4934470;29;20079;-67
2021/10/12 01:19:03;;;;;;;40.03;24.77;;;;;;;;;;4934165;29;20574;-68
2021/10/12 01:21:38;;;;;;;41.25;25.77;;;;;;;;;;4934182;29;20102;-67
2021/10/12 01:24:05;;;;;;;46.88;28.20;;;;;;;;;;4934448;29;20044;-67
2021/10/12 01:26:32;;;;;;;42.67;26.45;;;;;;;;;;4934135;29;20467;-67
2021/10/12 01:28:59;;;;;;;44.88;26.20;;;;;;;;;;4948788;29;20483;-66
2021/10/12 01:31:27;;;;;;;44.45;25.73;;;;;;;;;;4934009;29;20107;-67
2021/10/12 01:33:54;;;;;;;45.15;26.52;;;;;;;;;;4934360;29;20415;-68
2021/10/12 01:36:21;;;;;;;42.33;26.10;;;;;;;;;;4934186;29;20404;-68
2021/10/12 01:38:47;;;;;;;41.55;25.25;;;;;;;;;;4933846;29;20499;-67
2021/10/12 01:41:15;;;;;;;42.10;26.60;;;;;;;;;;4933986;29;20111;-69
2021/10/12 01:43:41;;;;;;;45.28;27.08;;;;;;;;;;4933937;29;20476;-68
2021/10/12 01:46:08;;;;;;;46.45;27.00;;;;;;;;;;4934029;29;20059;-68
2021/10/12 01:48:36;;;;;;;43.25;27.67;;;;;;;;;;4933965;29;20055;-68
2021/10/12 01:51:03;;;;;;;45.13;26.00;;;;;;;;;;4934079;29;20060;-69
2021/10/12 01:53:30;;;;;;;41.30;26.48;;;;;;;;;;4933906;29;20051;-68
2021/10/12 01:55:57;;;;;;;38.80;24.80;;;;;;;;;;4933880;29;20051;-68
2021/10/12 01:58:24;;;;;;;40.13;25.52;;;;;;;;;;4934080;29;20056;-67
2021/10/12 02:00:50;;;;;;;42.95;26.58;;;;;;;;;;4937437;29;20060;-67
2021/10/12 02:03:17;;;;;;;39.47;25.70;;;;;;;;;;4937186;29;20455;-68
2021/10/12 02:05:44;;;;;;;39.63;25.83;;;;;;;;;;4937343;29;20052;-67
2021/10/12 02:08:10;;;;;;;42.45;25.83;;;;;;;;;;4937506;29;20048;-67
2021/10/12 02:10:37;;;;;;;39.83;23.77;;;;;;;;;;4937482;29;20106;-69
2021/10/12 02:13:03;;;;;;;41.42;23.45;;;;;;;;;;4937454;29;20051;-68
2021/10/12 02:15:30;;;;;;;43.17;26.15;;;;;;;;;;4936983;29;20052;-68
2021/10/12 02:17:57;;;;;;;42.13;25.08;;;;;;;;;;4937155;29;20052;-67
2021/10/12 02:20:23;;;;;;;41.00;24.52;;;;;;;;;;4937185;29;20110;-68
2021/10/12 02:22:50;;;;;;;42.03;25.75;;;;;;;;;;4937226;29;20056;-68
2021/10/12 02:25:17;;;;;;;45.50;25.80;;;;;;;;;;4937130;29;20051;-68
2021/10/12 02:27:43;;;;;;;40.75;24.88;;;;;;;;;;4936905;29;20122;-69
2021/10/12 02:30:10;;;;;;;40.40;25.08;;;;;;;;;;4937102;29;20055;-68
2021/10/12 02:32:37;;;;;;;38.95;24.65;;;;;;;;;;4936956;29;20056;-68
2021/10/12 02:35:05;;;;;;;38.95;24.23;;;;;;;;;;4936695;29;20095;-68
2021/10/12 02:37:31;;;;;;;42.80;25.20;;;;;;;;;;4936897;29;20051;-68
2021/10/12 02:39:58;;;;;;;37.90;24.42;;;;;;;;;;4936873;29;20087;-68
2021/10/12 02:42:25;;;;;;;45.70;27.88;;;;;;;;;;4936614;29;20055;-68
2021/10/12 02:44:51;;;;;;;43.05;26.48;;;;;;;;;;4937202;29;20110;-68
2021/10/12 02:47:18;;;;;;;39.38;25.38;;;;;;;;;;4936750;29;20052;-68
2021/10/12 02:49:45;;;;;;;42.88;26.73;;;;;;;;;;4936637;29;20107;-67
2021/10/12 02:52:12;;;;;;;42.67;25.45;;;;;;;;;;4936454;29;20051;-66
2021/10/12 02:54:38;;;;;;;42.30;26.55;;;;;;;;;;4936483;29;20052;-66
2021/10/12 02:57:05;;;;;;;39.45;23.85;;;;;;;;;;4936818;29;20111;-66
2021/10/12 02:59:32;;;;;;;38.80;24.38;;;;;;;;;;4936429;29;20570;-66
2021/10/12 03:01:58;;;;;;;44.88;25.92;;;;;;;;;;4936262;29;20063;-66
2021/10/12 03:04:25;;;;;;;45.97;27.77;;;;;;;;;;4936329;29;20477;-66
2021/10/12 03:06:52;;;;;;;41.38;25.17;;;;;;;;;;4936287;29;20114;-67
2021/10/12 03:09:18;;;;;;;41.33;24.92;;;;;;;;;;4936282;29;20530;-67
2021/10/12 03:11:45;;;;;;;40.08;24.08;;;;;;;;;;4935019;29;20110;-67
2021/10/12 03:14:11;;;;;;;39.35;24.58;;;;;;;;;;4936402;29;20055;-67
2021/10/12 03:16:42;;;;;;;45.80;26.48;;;;;;;;;;4936121;29;20408;-67
2021/10/12 03:19:11;;;;;;;45.05;25.02;;;;;;;;;;4936231;29;20082;-66
2021/10/12 03:21:43;;;;;;;45.47;25.80;;;;;;;;;;4935704;29;20062;-66
2021/10/12 03:24:10;;;;;;;40.70;24.27;;;;;;;;;;4936156;29;20491;-67
2021/10/12 03:26:36;;;;;;;39.22;24.05;;;;;;;;;;4935905;29;20055;-66
2021/10/12 03:29:04;;;;;;;37.47;24.45;;;;;;;;;;4936022;29;20051;-67
2021/10/12 03:31:31;;;;;;;39.45;24.38;;;;;;;;;;4935764;29;20471;-67
2021/10/12 03:33:58;;;;;;;37.00;23.30;;;;;;;;;;4935676;29;20056;-66
2021/10/12 03:36:24;;;;;;;38.95;24.23;;;;;;;;;;4935666;29;20473;-66
2021/10/12 03:38:51;;;;;;;41.85;26.30;;;;;;;;;;4935716;29;20047;-66
2021/10/12 03:41:18;;;;;;;43.00;24.75;;;;;;;;;;4935806;29;20052;-66
2021/10/12 03:43:44;;;;;;;43.40;24.50;;;;;;;;;;4935603;29;20060;-67
2021/10/12 03:46:12;;;;;;;36.17;24.08;;;;;;;;;;4935480;29;20543;-67
2021/10/12 03:48:38;;;;;;;38.30;23.83;;;;;;;;;;4935477;29;20498;-67
2021/10/12 03:51:07;;;;;;;37.78;23.17;;;;;;;;;;4935587;29;20052;-67
2021/10/12 03:53:37;;;;;;;40.03;23.48;;;;;;;;;;4935263;29;20419;-67
2021/10/12 03:56:04;;;;;;;35.05;24.55;;;;;;;;;;4935599;29;20463;-67
2021/10/12 03:58:31;;;;;;;38.90;23.92;;;;;;;;;;4935552;29;20562;-67
2021/10/12 04:00:58;;;;;;;32.70;21.75;;;;;;;;;;4935364;29;20115;-68
2021/10/12 04:03:25;;;;;;;36.28;23.35;;;;;;;;;;4935275;29;20051;-67
2021/10/12 04:05:55;;;;;;;36.97;23.33;;;;;;;;;;4935459;29;20127;-67
2021/10/12 04:08:22;;;;;;;35.92;22.85;;;;;;;;;;4935270;29;20047;-67
2021/10/12 04:10:49;;;;;;;35.97;23.70;;;;;;;;;;4935192;29;20090;-66
2021/10/12 04:13:15;;;;;;;39.65;23.73;;;;;;;;;;4935073;29;20585;-67
2021/10/12 04:15:42;;;;;;;36.67;24.35;;;;;;;;;;4934307;29;20048;-67
2021/10/12 04:18:10;;;;;;;39.63;23.65;;;;;;;;;;4917921;29;20055;-67
2021/10/12 04:20:37;;;;;;;36.35;22.35;;;;;;;;;;4935000;29;20058;-67
2021/10/12 04:23:07;;;;;;;38.63;23.65;;;;;;;;;;4934512;29;20055;-67
2021/10/12 04:25:35;;;;;;;35.97;23.38;;;;;;;;;;4934856;29;20537;-67
2021/10/12 04:28:04;;;;;;;41.38;23.52;;;;;;;;;;4934844;29;20130;-67
2021/10/12 04:30:31;;;;;;;39.20;24.60;;;;;;;;;;4934707;29;20107;-67
2021/10/12 04:32:57;;;;;;;37.63;23.17;;;;;;;;;;4934694;29;20055;-67
2021/10/12 04:35:24;;;;;;;39.53;24.27;;;;;;;;;;4934940;29;20052;-67
2021/10/12 04:37:51;;;;;;;37.47;23.67;;;;;;;;;;4934661;29;20052;-66
2021/10/12 04:40:17;;;;;;;41.22;23.13;;;;;;;;;;4934764;29;20051;-67
2021/10/12 04:42:44;;;;;;;39.42;25.67;;;;;;;;;;4934272;29;20507;-66
2021/10/12 04:45:11;;;;;;;41.05;25.15;;;;;;;;;;4934487;29;20502;-67
2021/10/12 04:47:39;;;;;;;42.00;24.88;;;;;;;;;;4934324;29;20055;-66
2021/10/12 04:50:08;;;;;;;42.47;26.15;;;;;;;;;;4934694;29;20110;-67
2021/10/12 04:52:36;;;;;;;41.20;25.20;;;;;;;;;;4933916;29;20051;-66
2021/10/12 04:55:03;;;;;;;42.20;24.55;;;;;;;;;;4931500;29;20044;-67
2021/10/12 04:57:32;;;;;;;39.17;24.48;;;;;;;;;;4934061;29;20051;-66
2021/10/12 04:59:58;;;;;;;36.95;24.15;;;;;;;;;;4934083;29;20099;-66
2021/10/12 05:02:25;;;;;;;44.67;26.00;;;;;;;;;;4934421;29;20047;-66
2021/10/12 05:04:52;;;;;;;47.72;26.92;;;;;;;;;;4933879;29;20139;-66
2021/10/12 05:07:19;;;;;;;39.80;24.85;;;;;;;;;;4932536;29;20056;-66
2021/10/12 05:09:46;;;;;;;42.58;25.63;;;;;;;;;;4932366;29;20055;-66
2021/10/12 05:12:13;;;;;;;49.75;27.42;;;;;;;;;;4932211;29;20106;-66
2021/10/12 05:14:40;;;;;;;44.30;26.13;;;;;;;;;;4933354;29;20099;-66
2021/10/12 05:17:22;;;;;;;47.63;28.05;;;;;;;;;;4933819;29;20454;-66
2021/10/12 05:19:49;;;;;;;50.80;27.25;;;;;;;;;;4932180;29;20503;-66
2021/10/12 05:22:15;;;;;;;46.22;26.60;;;;;;;;;;4933849;29;20052;-65
2021/10/12 05:24:42;;;;;;;55.20;29.98;;;;;;;;;;4933784;29;20047;-65
2021/10/12 05:27:09;;;;;;;47.22;25.27;;;;;;;;;;4934218;29;20055;-66
2021/10/12 05:29:36;;;;;;;45.33;25.67;;;;;;;;;;4917195;29;20055;-66
2021/10/12 05:32:03;;;;;;;50.05;25.55;;;;;;;;;;4934170;29;20060;-65
2021/10/12 05:34:30;;;;;;;45.70;25.13;;;;;;;;;;4935947;29;20063;-66
2021/10/12 05:36:56;;;;;;;49.45;25.73;;;;;;;;;;4921122;29;20123;-66
2021/10/12 05:39:23;;;;;;;54.45;27.90;;;;;;;;;;4937489;29;20048;-66
2021/10/12 05:41:50;;;;;;;52.70;26.70;;;;;;;;;;4937424;29;20114;-66
2021/10/12 05:44:16;;;;;;;50.15;26.88;;;;;;;;;;4937761;29;20048;-65
2021/10/12 05:46:43;;;;;;;50.05;27.15;;;;;;;;;;4937612;29;20107;-66
2021/10/12 05:49:10;;;;;;;49.75;25.42;;;;;;;;;;4937835;29;20054;-66
2021/10/12 05:51:37;;;;;;;46.63;25.88;;;;;;;;;;4937368;29;20111;-66
2021/10/12 05:54:05;;;;;;;45.58;23.67;;;;;;;;;;4937484;29;20107;-65
2021/10/12 05:56:46;;;;;;;47.97;24.75;;;;;;;;;;4937572;29;20464;-66
2021/10/12 05:59:12;;;;;;;50.88;26.45;;;;;;;;;;4937712;29;20087;-65
2021/10/12 06:01:41;;;;;;;55.17;26.80;;;;;;;;;;4937355;29;20055;-65
2021/10/12 06:04:08;;;;;;;46.65;23.95;;;;;;;;;;4937237;29;20063;-65
2021/10/12 06:06:35;;;;;;;41.05;23.15;;;;;;;;;;4918948;29;20047;-66
2021/10/12 06:09:03;;;;;;;48.78;23.90;;;;;;;;;;4935514;29;20051;-66
2021/10/12 06:11:34;;;;;;;42.03;22.23;;;;;;;;;;4935163;29;20056;-66
2021/10/12 06:14:01;;;;;;;44.90;22.83;;;;;;;;;;4935326;29;20467;-66
2021/10/12 06:16:28;;;;;;;46.17;23.00;;;;;;;;;;4934737;29;20455;-66
2021/10/12 06:18:54;;;;;;;45.50;24.13;;;;;;;;;;4935138;29;20083;-67
2021/10/12 06:21:21;;;;;;;42.55;23.65;;;;;;;;;;4934887;29;20059;-67
2021/10/12 06:23:48;;;;;;;42.70;22.55;;;;;;;;;;4935261;29;20060;-67
2021/10/12 06:26:14;;;;;;;44.60;22.13;;;;;;;;;;4935131;29;20055;-67
2021/10/12 06:28:41;;;;;;;45.03;23.13;;;;;;;;;;4935093;29;20055;-67
2021/10/12 06:31:08;;;;;;;47.65;23.90;;;;;;;;;;4935025;29;20506;-67
2021/10/12 06:33:34;;;;;;;42.15;22.10;;;;;;;;;;4934252;29;20110;-67
2021/10/12 06:36:01;;;;;;;45.00;23.50;;;;;;;;;;4935033;29;20077;-67
2021/10/12 06:38:28;;;;;;;51.50;23.65;;;;;;;;;;4934763;29;20051;-67
2021/10/12 06:40:54;;;;;;;42.95;22.42;;;;;;;;;;4934768;29;20504;-67
2021/10/12 06:43:21;;;;;;;41.15;24.15;;;;;;;;;;4934707;29;20107;-67
2021/10/12 06:45:48;;;;;;;43.35;22.02;;;;;;;;;;4933855;29;20471;-66
2021/10/12 06:48:14;;;;;;;39.42;20.58;;;;;;;;;;4934897;29;20060;-66
2021/10/12 06:50:41;;;;;;;37.28;21.30;;;;;;;;;;4934624;29;20085;-66
2021/10/12 06:53:20;;;;;;;46.72;22.80;;;;;;;;;;4934362;29;20067;-67
2021/10/12 06:55:47;;;;;;;47.95;22.88;;;;;;;;;;4934588;29;20099;-66
2021/10/12 06:58:13;;;;;;;49.63;25.40;;;;;;;;;;4934285;29;20059;-66
2021/10/12 07:00:40;;;;;;;47.83;22.23;;;;;;;;;;4934234;29;20459;-73
2021/10/12 07:03:07;;;;;;;41.63;22.42;;;;;;;;;;4917283;29;20503;-65
2021/10/12 07:05:33;;;;;;;47.28;22.10;;;;;;;;;;4934160;29;20447;-66
2021/10/12 07:08:00;;;;;;;40.95;22.63;;;;;;;;;;4934302;29;20526;-65
2021/10/12 07:10:27;;;;;;;40.72;21.75;;;;;;;;;;4934196;29;20056;-66
2021/10/12 07:12:53;;;;;;;45.20;22.92;;;;;;;;;;4933356;29;20055;-65
2021/10/12 07:15:20;;;;;;;38.50;21.25;;;;;;;;;;4934152;29;20170;-69
2021/10/12 07:17:46;;;;;;;45.78;23.15;;;;;;;;;;4934007;29;20059;-65
2021/10/12 07:20:13;;;;;;;43.70;22.15;;;;;;;;;;4934110;29;20052;-65
2021/10/12 07:22:40;;;;;;;40.47;21.23;;;;;;;;;;4931356;29;20106;-73
2021/10/12 07:25:07;;;;;;;43.97;20.08;;;;;;;;;;4915909;29;20103;-72
2021/10/12 07:27:34;;;;;;;47.83;23.25;;;;;;;;;;4933295;29;20047;-70
2021/10/12 07:30:17;;;;;;;39.47;20.67;;;;;;;;;;4933640;29;20419;-71
2021/10/12 07:32:44;;;;;;;40.25;21.77;;;;;;;;;;4924093;29;20096;-71
2021/10/12 07:35:11;;;;;;;44.75;20.95;;;;;;;;;;4926863;29;20776;-71
2021/10/12 07:37:40;;;;;;;37.85;20.20;;;;;;;;;;4919866;29;20085;-68
2021/10/12 07:40:08;;;;;;;37.53;20.17;;;;;;;;;;4924054;29;20086;-77
2021/10/12 07:42:34;;;;;;;35.65;19.73;;;;;;;;;;4904464;29;20056;-68
2021/10/12 07:45:01;;;;;;;31.25;19.38;;;;;;;;;;4923170;29;20539;-68
2021/10/12 07:47:28;;;;;;;37.70;19.88;;;;;;;;;;4918779;29;20103;-66
2021/10/12 07:49:54;;;;;;;37.08;20.42;;;;;;;;;;4921278;29;20087;-67
2021/10/12 07:52:21;;;;;;;38.55;18.67;;;;;;;;;;4920321;29;20048;-68
2021/10/12 07:55:00;;;;;;;36.50;21.13;;;;;;;;;;4923057;29;20052;-69
2021/10/12 07:57:27;;;;;;;31.50;18.58;;;;;;;;;;4919072;29;20048;-67
2021/10/12 07:59:53;;;;;;;31.75;19.30;;;;;;;;;;4919807;29;20056;-64
2021/10/12 08:02:20;;;;;;;35.15;19.58;;;;;;;;;;4921636;29;20055;-63
2021/10/12 08:04:48;;;;;;;33.17;18.52;;;;;;;;;;4918960;29;20595;-65
2021/10/12 08:07:18;;;;;;;38.47;19.95;;;;;;;;;;4920654;29;20044;-64
2021/10/12 08:09:51;;;;;;;36.42;19.83;;;;;;;;;;4919050;29;20052;-64
2021/10/12 08:12:21;;;;;;;41.45;21.63;;;;;;;;;;4907423;29;20087;-64
2021/10/12 08:14:54;;;;;;;38.05;19.38;;;;;;;;;;4919804;29;20447;-63
2021/10/12 08:17:22;;;;;;;32.95;18.00;;;;;;;;;;4920477;29;20044;-65
2021/10/12 08:19:49;;;;;;;34.45;19.58;;;;;;;;;;4920529;29;20058;-66
2021/10/12 08:22:19;;;;;;;31.10;16.98;;;;;;;;;;4925829;29;20059;-63
2021/10/12 08:24:47;;;;;;;36.50;20.50;;;;;;;;;;4925125;29;20482;-65
2021/10/12 08:27:15;;;;;;;27.17;16.70;;;;;;;;;;4920749;29;20496;-65
2021/10/12 08:29:43;;;;;;;33.65;17.38;;;;;;;;;;4921192;29;20419;-65
2021/10/12 08:32:16;;;;;;;29.88;16.73;;;;;;;;;;4905393;29;20072;-64
2021/10/12 08:34:43;;;;;;;35.03;17.92;;;;;;;;;;4923965;29;20110;-64
2021/10/12 08:37:12;;;;;;;34.28;17.63;;;;;;;;;;4921433;29;20047;-64
2021/10/12 08:39:43;;;;;;;31.90;16.50;;;;;;;;;;4922337;29;20415;-64
2021/10/12 08:42:35;;;;;;;26.58;14.98;;;;;;;;;;4924863;29;20462;-64
2021/10/12 08:45:05;;;;;;;28.95;16.25;;;;;;;;;;4916583;29;20083;-64
2021/10/12 08:47:31;;;;;;;27.42;14.95;;;;;;;;;;4923013;29;20096;-64
2021/10/12 08:50:00;;;;;;;25.95;14.98;;;;;;;;;;4922393;29;20051;-64
2021/10/12 08:52:27;;;;;;;26.25;17.00;;;;;;;;;;4920352;29;20112;-65
2021/10/12 08:54:54;;;;;;;21.65;14.93;;;;;;;;;;4921261;29;20051;-65
2021/10/12 08:57:31;;;;;;;25.30;15.25;;;;;;;;;;4920608;29;20104;-65
2021/10/12 09:00:19;;;;;;;24.25;15.43;;;;;;;;;;4920203;29;20083;-65
2021/10/12 09:05:57;;;;;;;22.65;14.20;;;;;;;;;;4919878;29;20071;-65
2021/10/12 09:08:35;;;;;;;22.88;13.50;;;;;;;;;;4923496;29;20444;-65
2021/10/12 09:11:04;;;;;;;22.08;13.00;;;;;;;;;;4925384;29;20051;-65
2021/10/12 09:13:46;;;;;;;18.55;12.32;;;;;;;;;;4926942;29;20056;-67
2021/10/12 09:16:15;;;;;;;19.98;13.00;;;;;;;;;;4910929;29;20451;-69
2021/10/12 09:18:46;;;;;;;21.20;13.13;;;;;;;;;;4925407;29;20415;-70
2021/10/12 09:21:15;;;;;;;22.75;12.35;;;;;;;;;;4923809;29;20052;-67
2021/10/12 09:23:43;;;;;;;21.77;13.32;;;;;;;;;;4934973;29;20138;-66
2021/10/12 09:26:22;;;;;;;21.60;12.90;;;;;;;;;;4923704;29;20516;-67
2021/10/12 09:28:51;;;;;;;17.80;10.88;;;;;;;;;;4930124;29;20459;-65
2021/10/12 09:31:19;;;;;;;16.65;11.13;;;;;;;;;;4933193;29;20082;-66
2021/10/12 09:33:48;;;;;;;18.30;10.68;;;;;;;;;;4901352;29;20052;-63
2021/10/12 09:36:34;;;;;;;17.52;9.93;;;;;;;;;;4927809;29;20457;-63
2021/10/12 09:39:02;;;;;;;20.27;12.52;;;;;;;;;;4924783;29;20138;-64
2021/10/12 09:41:30;;;;;;;23.00;12.02;;;;;;;;;;4926773;29;20054;-64
2021/10/12 09:44:13;;;;;;;11.45;8.43;;;;;;;;;;4925443;29;20048;-63
2021/10/12 09:46:45;;;;;;;14.48;9.68;;;;;;;;;;4923665;29;20507;-63
2021/10/12 09:49:16;;;;;;;;;;;;;;;;;;4924841;29;20052;-64
2021/10/12 09:51:53;;;;;;;15.10;9.70;;;;;;;;;;4927273;29;19927;-64
2021/10/12 09:54:24;;;;;;;14.52;10.63;;;;;;;;;;4923569;29;20499;-64
2021/10/12 09:56:51;;;;;;;16.42;10.60;;;;;;;;;;4926627;29;20048;-64
2021/10/12 09:59:18;;;;;;;17.67;10.55;;;;;;;;;;4924156;29;20056;-64
2021/10/12 10:01:46;;;;;;;16.98;9.82;;;;;;;;;;4923773;29;20054;-64
2021/10/12 10:04:19;;;;;;;17.40;10.07;;;;;;;;;;4924845;29;20087;-69
2021/10/12 10:06:49;;;;;;;18.58;11.30;;;;;;;;;;4928577;29;20079;-66
2021/10/12 10:09:20;;;;;;;22.80;12.77;;;;;;;;;;4918300;29;20083;-66
2021/10/12 10:11:47;;;;;;;19.00;12.43;;;;;;;;;;4931202;29;20051;-65
2021/10/12 10:14:15;;;;;;;26.48;14.82;;;;;;;;;;4933259;29;20499;-65
2021/10/12 10:16:52;;;;;;;24.20;12.88;;;;;;;;;;4930788;29;20602;-65
2021/10/12 10:19:30;;;;;;;24.20;12.38;;;;;;;;;;4914081;29;20100;-64
2021/10/12 10:21:57;;;;;;;20.63;12.10;;;;;;;;;;4932118;29;20052;-64
2021/10/12 10:24:41;;;;;;;20.20;12.88;;;;;;;;;;4912103;29;20051;-65
2021/10/12 10:27:27;;;;;;;20.85;12.13;;;;;;;;;;4923878;29;20052;-65
2021/10/12 10:30:14;;;;;;;25.10;12.93;;;;;;;;;;4932760;29;20495;-64
2021/10/12 10:32:51;;;;;;;16.33;11.77;;;;;;;;;;4930722;29;20051;-65
2021/10/12 10:35:34;;;;;;;15.65;10.68;;;;;;;;;;4932475;29;20181;-65
2021/10/12 10:38:19;;;;;;;13.30;9.57;;;;;;;;;;4930133;29;20087;-64
2021/10/12 10:40:50;;;;;;;12.93;8.70;;;;;;;;;;4932062;29;20464;-66
2021/10/12 10:43:17;;;;;;;10.90;7.32;;;;;;;;;;4930479;29;20085;-65
2021/10/12 10:45:46;;;;;;;16.10;8.07;;;;;;;;;;4909581;29;20059;-65
2021/10/12 10:48:15;;;;;;;14.48;7.80;;;;;;;;;;4931230;29;20055;-66
2021/10/12 10:50:42;;;;;;;12.65;7.35;;;;;;;;;;4924335;29;20131;-66
2021/10/12 10:53:10;;;;;;;14.73;7.75;;;;;;;;;;4921931;29;20048;-66
2021/10/12 10:55:44;;;;;;;14.57;7.22;;;;;;;;;;4924908;29;20099;-65
2021/10/12 10:58:17;;;;;;;;;;;;;;;;;;4921786;29;20052;-65
2021/10/12 11:00:47;;;;;;;12.52;6.13;;;;;;;;;;4923097;29;20619;-65
2021/10/12 11:03:25;;;;;;;10.20;5.63;;;;;;;;;;4923652;29;20051;-65
2021/10/12 11:05:53;;;;;;;12.13;5.70;;;;;;;;;;4922234;29;20312;-65
2021/10/12 11:08:24;;;;;;;11.30;6.10;;;;;;;;;;4923943;29;20043;-65
2021/10/12 11:10:57;;;;;;;10.75;5.60;;;;;;;;;;4923824;29;20111;-65
2021/10/12 11:13:27;;;;;;;14.45;6.35;;;;;;;;;;4922364;29;20103;-65
2021/10/12 11:15:54;;;;;;;9.48;6.53;;;;;;;;;;4926921;29;20048;-64
2021/10/12 11:18:21;;;;;;;15.40;8.05;;;;;;;;;;4928988;29;20048;-66
2021/10/12 11:20:51;;;;;;;13.73;7.47;;;;;;;;;;4931020;29;20581;-67
2021/10/12 11:23:24;;;;;;;13.05;8.43;;;;;;;;;;4931948;29;20047;-67
2021/10/12 11:26:00;;;;;;;10.07;6.80;;;;;;;;;;4929971;29;20471;-66
2021/10/12 11:28:27;;;;;;;13.50;7.60;;;;;;;;;;4931006;29;20049;-69
2021/10/12 11:30:54;;;;;;;15.90;6.90;;;;;;;;;;4928528;29;20089;-66
2021/10/12 11:33:28;;;;;;;11.98;7.20;;;;;;;;;;4931071;29;20048;-68
2021/10/12 11:35:59;;;;;;;22.63;9.60;;;;;;;;;;4912458;29;20059;-67
2021/10/12 11:38:45;;;;;;;13.55;6.18;;;;;;;;;;4929921;29;20043;-64
2021/10/12 11:41:18;;;;;;;16.13;6.20;;;;;;;;;;4931418;29;20396;-64
2021/10/12 11:43:46;;;;;;;13.60;5.63;;;;;;;;;;4929918;29;20062;-64
2021/10/12 11:46:22;;;;;;;12.57;5.47;;;;;;;;;;4921872;29;20475;-67
2021/10/12 11:48:49;;;;;;;9.98;3.88;;;;;;;;;;4909613;29;20056;-68
2021/10/12 11:51:18;;;;;;;8.02;3.72;;;;;;;;;;4920165;29;20060;-70
2021/10/12 11:53:45;;;;;;;7.57;4.13;;;;;;;;;;4922959;29;20047;-71
2021/10/12 11:56:13;;;;;;;7.75;4.20;;;;;;;;;;4921319;29;20086;-68
2021/10/12 11:58:40;;;;;;;8.45;4.07;;;;;;;;;;4924083;29;20067;-69
2021/10/12 12:01:12;;;;;;;12.15;4.20;;;;;;;;;;4925029;29;20063;-69
2021/10/12 12:03:42;;;;;;;9.20;3.42;;;;;;;;;;4921861;29;20431;-67
2021/10/12 12:06:09;;;;;;;11.18;3.35;;;;;;;;;;4923033;29;20048;-68
2021/10/12 12:08:37;;;;;;;11.95;3.47;;;;;;;;;;4900775;29;20054;-70
2021/10/12 12:11:03;;;;;;;8.52;3.50;;;;;;;;;;4922973;29;20051;-68
2021/10/12 12:13:31;;;;;;;8.32;4.28;;;;;;;;;;4916308;29;20051;-69
2021/10/12 12:15:58;;;;;;;9.82;3.45;;;;;;;;;;4899472;29;20056;-67
2021/10/12 12:18:27;;;;;;;11.98;4.45;;;;;;;;;;4904730;29;20519;-70
2021/10/12 12:20:56;;;;;;;9.57;3.38;;;;;;;;;;4923664;29;20060;-69
2021/10/12 12:23:40;;;;;;;5.72;3.00;;;;;;;;;;4929674;29;20048;-68
2021/10/12 12:26:11;;;;;;;6.35;2.67;;;;;;;;;;4920976;29;20052;-66
2021/10/12 12:28:40;;;;;;;12.38;2.90;;;;;;;;;;4927247;29;20496;-73
2021/10/12 12:31:26;;;;;;;8.40;2.75;;;;;;;;;;4929562;29;20051;-70
2021/10/12 12:33:55;;;;;;;9.20;4.35;;;;;;;;;;4921092;29;20430;-71
2021/10/12 12:36:35;;;;;;;7.00;3.53;;;;;;;;;;4893539;29;20066;-72
2021/10/12 12:39:06;;;;;;;6.90;2.88;;;;;;;;;;4915065;29;20664;-71
2021/10/12 12:41:40;;;;;;;10.98;4.35;;;;;;;;;;4904994;29;20051;-73
2021/10/12 12:44:08;;;;;;;11.13;3.50;;;;;;;;;;4911971;29;20056;-72
2021/10/12 12:46:35;;;;;;;6.18;3.63;;;;;;;;;;4921927;29;20052;-71
2021/10/12 12:49:14;;;;;;;6.05;3.42;;;;;;;;;;4921657;29;20051;-68
2021/10/12 12:51:46;;;;;;;5.80;3.13;;;;;;;;;;4922724;29;20052;-68
2021/10/12 12:54:34;;;;;;;9.25;4.07;;;;;;;;;;4920614;29;20056;-70
2021/10/12 12:57:12;;;;;;;4.30;3.80;;;;;;;;;;4923609;29;20123;-71
2021/10/12 12:59:45;;;;;;;8.65;3.80;;;;;;;;;;4924703;29;20507;-70
2021/10/12 13:02:19;;;;;;;8.85;3.78;;;;;;;;;;4924262;29;20480;-70
2021/10/12 13:04:46;;;;;;;16.73;5.95;;;;;;;;;;4921772;29;20055;-73
2021/10/12 13:07:14;;;;;;;9.63;4.38;;;;;;;;;;4925402;29;20499;-69
2021/10/12 13:09:41;;;;;;;7.90;4.00;;;;;;;;;;4923738;29;20048;-75
2021/10/12 13:12:14;;;;;;;9.45;4.00;;;;;;;;;;4920732;29;20083;-76
2021/10/12 13:14:47;;;;;;;11.60;3.60;;;;;;;;;;4930006;29;20503;-69
2021/10/12 13:17:19;;;;;;;9.55;4.43;;;;;;;;;;4923415;29;20056;-70
2021/10/12 13:19:51;;;;;;;7.30;3.67;;;;;;;;;;4924142;29;20098;-68
2021/10/12 13:22:19;;;;;;;8.27;4.10;;;;;;;;;;4923399;29;20110;-68
2021/10/12 13:24:47;;;;;;;9.73;4.00;;;;;;;;;;4922939;29;20066;-67
2021/10/12 13:27:14;;;;;;;7.03;3.72;;;;;;;;;;4920818;29;20143;-65
2021/10/12 13:29:40;;;;;;;5.95;3.83;;;;;;;;;;4924053;29;20052;-64
2021/10/12 13:32:07;;;;;;;8.68;4.05;;;;;;;;;;4920719;29;20098;-65
2021/10/12 13:34:34;;;;;;;8.32;4.15;;;;;;;;;;4919952;29;20103;-64
2021/10/12 13:37:01;;;;;;;9.70;5.18;;;;;;;;;;4921088;29;20058;-65
2021/10/12 13:39:27;;;;;;;7.85;4.85;;;;;;;;;;4919828;29;20104;-64
2021/10/12 13:41:55;;;;;;;8.07;4.28;;;;;;;;;;4924516;29;20055;-64
2021/10/12 13:44:22;;;;;;;10.00;4.93;;;;;;;;;;4919672;29;20048;-65
2021/10/12 13:46:49;;;;;;;10.45;4.32;;;;;;;;;;4925179;29;20059;-65
2021/10/12 13:49:17;;;;;;;7.88;4.53;;;;;;;;;;4932367;29;20644;-65
2021/10/12 13:51:43;;;;;;;9.85;4.68;;;;;;;;;;4933230;29;20070;-65
2021/10/12 13:54:10;;;;;;;8.52;4.65;;;;;;;;;;4934086;29;20060;-64
2021/10/12 13:56:37;;;;;;;8.02;4.45;;;;;;;;;;4936807;29;20499;-65
2021/10/12 13:59:03;;;;;;;7.38;4.35;;;;;;;;;;4937820;29;20052;-64
2021/10/12 14:01:31;;;;;;;7.32;3.90;;;;;;;;;;4920814;29;20048;-65
2021/10/12 14:03:58;;;;;;;6.00;4.65;;;;;;;;;;4937464;29;20055;-65
2021/10/12 14:06:25;;;;;;;8.20;4.60;;;;;;;;;;4937445;29;20486;-65
2021/10/12 14:08:52;;;;;;;8.68;4.45;;;;;;;;;;4937694;29;20107;-65
2021/10/12 14:11:18;;;;;;;9.90;4.70;;;;;;;;;;4936968;29;20426;-65
2021/10/12 14:13:45;;;;;;;7.93;3.83;;;;;;;;;;4917327;29;20052;-65
2021/10/12 14:16:15;;;;;;;11.15;4.35;;;;;;;;;;4918634;29;20052;-64
2021/10/12 14:18:46;;;;;;;7.18;3.95;;;;;;;;;;4926888;29;20132;-64
2021/10/12 14:21:19;;;;;;;9.85;4.00;;;;;;;;;;4934168;29;20070;-65
2021/10/12 14:23:47;;;;;;;11.85;5.35;;;;;;;;;;4935010;29;20048;-64
2021/10/12 14:26:15;;;;;;;11.20;5.35;;;;;;;;;;4934545;29;20048;-64
2021/10/12 14:28:42;;;;;;;12.75;4.97;;;;;;;;;;4932290;29;20154;-67
2021/10/12 14:31:10;;;;;;;6.43;4.30;;;;;;;;;;4917002;29;20160;-68
2021/10/12 14:33:41;;;;;;;10.43;4.63;;;;;;;;;;4926707;29;20059;-68
2021/10/12 14:36:09;;;;;;;9.57;4.15;;;;;;;;;;4911943;29;20150;-67